sensor_id;sensor_type;location;lat;lon;timestamp;P1;durP1;ratioP1;P2;durP2;ratioP2
12451;SDS011;72521;48.924;12.204;2023-11-21T00:04:30;5.78;;;2.55;;
12451;SDS011;72521;48.924;12.204;2023-11-21T00:09:34;7.18;;;2.53;;
12451;SDS011;72521;48.924;12.204;2023-11-21T00:14:40;3.00;;;2.50;;
12451;SDS011;72521;48.924;12.204;2023-11-21T00:19:44;6.15;;;2.38;;
12451;SDS011;72521;48.924;12.204;2023-11-21T00:24:49;4.10;;;1.75;;
12451;SDS011;72521;48.924;12.204;2023-11-21T00:29:54;4.57;;;2.00;;
12451;SDS011;72521;48.924;12.204;2023-11-21T00:34:58;7.95;;;2.58;;
12451;SDS011;72521;48.924;12.204;2023-11-21T00:40:03;8.10;;;2.55;;
12451;SDS011;72521;48.924;12.204;2023-11-21T00:45:10;6.18;;;2.63;;
12451;SDS011;72521;48.924;12.204;2023-11-21T00:50:14;11.70;;;5.20;;
12451;SDS011;72521;48.924;12.204;2023-11-21T00:55:18;7.70;;;3.15;;
12451;SDS011;72521;48.924;12.204;2023-11-21T01:00:24;7.90;;;2.72;;
12451;SDS011;72521;48.924;12.204;2023-11-21T01:05:28;5.72;;;2.90;;
12451;SDS011;72521;48.924;12.204;2023-11-21T01:10:32;5.10;;;2.53;;
12451;SDS011;72521;48.924;12.204;2023-11-21T01:15:38;6.57;;;2.40;;
12451;SDS011;72521;48.924;12.204;2023-11-21T01:20:43;7.53;;;2.88;;
12451;SDS011;72521;48.924;12.204;2023-11-21T01:25:48;5.25;;;2.00;;
12451;SDS011;72521;48.924;12.204;2023-11-21T01:30:55;4.78;;;2.08;;
12451;SDS011;72521;48.924;12.204;2023-11-21T01:36:00;6.28;;;2.60;;
12451;SDS011;72521;48.924;12.204;2023-11-21T01:41:04;10.88;;;2.50;;
12451;SDS011;72521;48.924;12.204;2023-11-21T01:46:10;4.45;;;2.13;;
12451;SDS011;72521;48.924;12.204;2023-11-21T01:51:14;6.32;;;2.25;;
12451;SDS011;72521;48.924;12.204;2023-11-21T01:56:19;3.72;;;1.98;;
12451;SDS011;72521;48.924;12.204;2023-11-21T02:01:24;6.18;;;2.10;;
12451;SDS011;72521;48.924;12.204;2023-11-21T02:06:29;4.90;;;2.05;;
12451;SDS011;72521;48.924;12.204;2023-11-21T02:11:33;5.03;;;2.25;;
12451;SDS011;72521;48.924;12.204;2023-11-21T02:16:42;6.32;;;2.20;;
12451;SDS011;72521;48.924;12.204;2023-11-21T02:21:50;5.15;;;2.17;;
12451;SDS011;72521;48.924;12.204;2023-11-21T02:26:55;4.22;;;2.40;;
12451;SDS011;72521;48.924;12.204;2023-11-21T02:32:00;9.00;;;2.67;;
12451;SDS011;72521;48.924;12.204;2023-11-21T02:37:05;5.40;;;2.15;;
12451;SDS011;72521;48.924;12.204;2023-11-21T02:42:11;5.20;;;2.70;;
12451;SDS011;72521;48.924;12.204;2023-11-21T02:47:15;4.85;;;2.20;;
12451;SDS011;72521;48.924;12.204;2023-11-21T02:52:19;8.40;;;2.67;;
12451;SDS011;72521;48.924;12.204;2023-11-21T02:57:24;7.15;;;2.63;;
12451;SDS011;72521;48.924;12.204;2023-11-21T03:02:28;4.93;;;2.40;;
12451;SDS011;72521;48.924;12.204;2023-11-21T03:07:34;4.70;;;2.50;;
12451;SDS011;72521;48.924;12.204;2023-11-21T03:12:41;5.47;;;2.90;;
12451;SDS011;72521;48.924;12.204;2023-11-21T03:17:46;10.18;;;3.10;;
12451;SDS011;72521;48.924;12.204;2023-11-21T03:22:52;7.65;;;2.95;;
12451;SDS011;72521;48.924;12.204;2023-11-21T03:27:57;5.80;;;3.00;;
12451;SDS011;72521;48.924;12.204;2023-11-21T03:33:02;7.97;;;3.10;;
12451;SDS011;72521;48.924;12.204;2023-11-21T03:38:06;6.43;;;2.67;;
12451;SDS011;72521;48.924;12.204;2023-11-21T03:43:11;28.92;;;15.35;;
12451;SDS011;72521;48.924;12.204;2023-11-21T03:48:16;25.05;;;14.40;;
12451;SDS011;72521;48.924;12.204;2023-11-21T03:53:20;11.45;;;3.78;;
12451;SDS011;72521;48.924;12.204;2023-11-21T03:58:26;8.85;;;3.67;;
12451;SDS011;72521;48.924;12.204;2023-11-21T04:03:30;8.05;;;3.33;;
12451;SDS011;72521;48.924;12.204;2023-11-21T04:08:34;6.72;;;3.03;;
12451;SDS011;72521;48.924;12.204;2023-11-21T04:13:40;6.10;;;3.08;;
12451;SDS011;72521;48.924;12.204;2023-11-21T04:18:45;11.55;;;4.20;;
12451;SDS011;72521;48.924;12.204;2023-11-21T04:23:49;7.65;;;4.03;;
12451;SDS011;72521;48.924;12.204;2023-11-21T04:28:54;6.05;;;3.15;;
12451;SDS011;72521;48.924;12.204;2023-11-21T04:33:58;6.45;;;3.40;;
12451;SDS011;72521;48.924;12.204;2023-11-21T04:39:03;8.82;;;4.18;;
12451;SDS011;72521;48.924;12.204;2023-11-21T04:44:09;10.20;;;4.18;;
12451;SDS011;72521;48.924;12.204;2023-11-21T04:49:13;7.15;;;4.65;;
12451;SDS011;72521;48.924;12.204;2023-11-21T04:54:18;10.85;;;4.93;;
12451;SDS011;72521;48.924;12.204;2023-11-21T04:59:23;7.55;;;4.72;;
12451;SDS011;72521;48.924;12.204;2023-11-21T05:04:28;7.22;;;5.07;;
12451;SDS011;72521;48.924;12.204;2023-11-21T05:09:32;12.60;;;6.10;;
12451;SDS011;72521;48.924;12.204;2023-11-21T05:14:38;15.10;;;6.22;;
12451;SDS011;72521;48.924;12.204;2023-11-21T05:19:43;10.85;;;5.50;;
12451;SDS011;72521;48.924;12.204;2023-11-21T05:24:51;11.85;;;6.00;;
12451;SDS011;72521;48.924;12.204;2023-11-21T05:29:56;8.90;;;5.03;;
12451;SDS011;72521;48.924;12.204;2023-11-21T05:35:00;8.55;;;5.43;;
12451;SDS011;72521;48.924;12.204;2023-11-21T05:40:06;11.98;;;6.20;;
12451;SDS011;72521;48.924;12.204;2023-11-21T05:45:13;10.02;;;6.55;;
12451;SDS011;72521;48.924;12.204;2023-11-21T05:50:17;12.73;;;6.78;;
12451;SDS011;72521;48.924;12.204;2023-11-21T05:55:22;11.95;;;6.10;;
12451;SDS011;72521;48.924;12.204;2023-11-21T06:00:29;9.38;;;6.05;;
12451;SDS011;72521;48.924;12.204;2023-11-21T06:05:34;13.68;;;8.25;;
12451;SDS011;72521;48.924;12.204;2023-11-21T06:10:40;10.45;;;7.03;;
12451;SDS011;72521;48.924;12.204;2023-11-21T06:15:45;12.45;;;6.63;;
12451;SDS011;72521;48.924;12.204;2023-11-21T06:20:49;10.20;;;5.68;;
12451;SDS011;72521;48.924;12.204;2023-11-21T06:25:54;10.18;;;6.20;;
12451;SDS011;72521;48.924;12.204;2023-11-21T06:31:00;9.48;;;6.45;;
12451;SDS011;72521;48.924;12.204;2023-11-21T06:36:08;12.30;;;7.15;;
12451;SDS011;72521;48.924;12.204;2023-11-21T06:41:14;9.07;;;5.95;;
12451;SDS011;72521;48.924;12.204;2023-11-21T06:46:19;10.38;;;6.70;;
12451;SDS011;72521;48.924;12.204;2023-11-21T06:51:23;11.82;;;7.53;;
12451;SDS011;72521;48.924;12.204;2023-11-21T06:56:27;14.57;;;6.57;;
12451;SDS011;72521;48.924;12.204;2023-11-21T07:01:32;11.30;;;5.10;;
12451;SDS011;72521;48.924;12.204;2023-11-21T07:06:40;12.50;;;7.18;;
12451;SDS011;72521;48.924;12.204;2023-11-21T07:11:45;13.82;;;7.75;;
12451;SDS011;72521;48.924;12.204;2023-11-21T07:16:51;13.60;;;7.65;;
12451;SDS011;72521;48.924;12.204;2023-11-21T07:21:55;8.25;;;5.70;;
12451;SDS011;72521;48.924;12.204;2023-11-21T07:26:59;11.52;;;4.93;;
12451;SDS011;72521;48.924;12.204;2023-11-21T07:32:05;9.85;;;5.30;;
12451;SDS011;72521;48.924;12.204;2023-11-21T07:37:11;9.82;;;5.22;;
12451;SDS011;72521;48.924;12.204;2023-11-21T07:42:15;14.77;;;7.07;;
12451;SDS011;72521;48.924;12.204;2023-11-21T07:47:21;9.77;;;6.00;;
12451;SDS011;72521;48.924;12.204;2023-11-21T07:52:29;11.20;;;7.30;;
12451;SDS011;72521;48.924;12.204;2023-11-21T07:57:33;10.73;;;6.68;;
12451;SDS011;72521;48.924;12.204;2023-11-21T08:02:39;11.65;;;7.55;;
12451;SDS011;72521;48.924;12.204;2023-11-21T08:07:47;12.57;;;7.47;;
12451;SDS011;72521;48.924;12.204;2023-11-21T08:12:52;15.02;;;7.55;;
12451;SDS011;72521;48.924;12.204;2023-11-21T08:17:57;11.10;;;6.72;;
12451;SDS011;72521;48.924;12.204;2023-11-21T08:23:01;15.88;;;8.30;;
12451;SDS011;72521;48.924;12.204;2023-11-21T08:28:07;12.90;;;9.52;;
12451;SDS011;72521;48.924;12.204;2023-11-21T08:33:13;11.93;;;7.88;;
12451;SDS011;72521;48.924;12.204;2023-11-21T08:38:17;7.82;;;6.35;;
12451;SDS011;72521;48.924;12.204;2023-11-21T08:43:20;8.30;;;6.00;;
12451;SDS011;72521;48.924;12.204;2023-11-21T08:48:27;7.07;;;4.85;;
12451;SDS011;72521;48.924;12.204;2023-11-21T08:53:31;6.28;;;4.32;;
12451;SDS011;72521;48.924;12.204;2023-11-21T08:58:35;7.82;;;4.50;;
12451;SDS011;72521;48.924;12.204;2023-11-21T09:03:41;7.28;;;4.13;;
12451;SDS011;72521;48.924;12.204;2023-11-21T09:08:45;7.30;;;4.32;;
12451;SDS011;72521;48.924;12.204;2023-11-21T09:13:52;7.72;;;4.55;;
12451;SDS011;72521;48.924;12.204;2023-11-21T09:18:58;6.68;;;4.07;;
12451;SDS011;72521;48.924;12.204;2023-11-21T09:24:04;6.75;;;4.70;;
12451;SDS011;72521;48.924;12.204;2023-11-21T09:29:10;5.03;;;3.80;;
12451;SDS011;72521;48.924;12.204;2023-11-21T09:34:16;5.50;;;3.33;;
12451;SDS011;72521;48.924;12.204;2023-11-21T09:39:20;6.90;;;3.63;;
12451;SDS011;72521;48.924;12.204;2023-11-21T09:44:26;5.65;;;3.35;;
12451;SDS011;72521;48.924;12.204;2023-11-21T09:49:40;5.97;;;4.32;;
12451;SDS011;72521;48.924;12.204;2023-11-21T09:54:44;13.55;;;6.30;;
12451;SDS011;72521;48.924;12.204;2023-11-21T09:59:49;8.52;;;4.75;;
12451;SDS011;72521;48.924;12.204;2023-11-21T10:04:59;5.93;;;4.15;;
12451;SDS011;72521;48.924;12.204;2023-11-21T10:10:05;5.60;;;3.80;;
12451;SDS011;72521;48.924;12.204;2023-11-21T10:15:11;4.57;;;4.05;;
12451;SDS011;72521;48.924;12.204;2023-11-21T10:20:19;6.00;;;3.35;;
12451;SDS011;72521;48.924;12.204;2023-11-21T10:25:23;6.07;;;3.20;;
12451;SDS011;72521;48.924;12.204;2023-11-21T10:30:30;4.35;;;2.97;;
12451;SDS011;72521;48.924;12.204;2023-11-21T10:35:40;6.18;;;3.13;;
12451;SDS011;72521;48.924;12.204;2023-11-21T10:40:52;4.75;;;3.33;;
12451;SDS011;72521;48.924;12.204;2023-11-21T10:45:57;5.63;;;3.38;;
12451;SDS011;72521;48.924;12.204;2023-11-21T10:51:07;4.28;;;2.97;;
12451;SDS011;72521;48.924;12.204;2023-11-21T10:56:13;4.30;;;3.13;;
12451;SDS011;72521;48.924;12.204;2023-11-21T11:01:22;7.05;;;3.97;;
12451;SDS011;72521;48.924;12.204;2023-11-21T11:06:32;5.80;;;3.55;;
12451;SDS011;72521;48.924;12.204;2023-11-21T11:11:37;3.78;;;3.47;;
12451;SDS011;72521;48.924;12.204;2023-11-21T11:16:42;4.20;;;3.75;;
12451;SDS011;72521;48.924;12.204;2023-11-21T11:21:50;3.90;;;2.85;;
12451;SDS011;72521;48.924;12.204;2023-11-21T11:27:07;6.22;;;3.30;;
12451;SDS011;72521;48.924;12.204;2023-11-21T11:32:35;5.93;;;3.60;;
12451;SDS011;72521;48.924;12.204;2023-11-21T11:37:51;3.50;;;3.20;;
12451;SDS011;72521;48.924;12.204;2023-11-21T11:42:56;3.83;;;3.45;;
12451;SDS011;72521;48.924;12.204;2023-11-21T11:48:01;5.43;;;3.92;;
12451;SDS011;72521;48.924;12.204;2023-11-21T11:53:13;13.00;;;6.80;;
12451;SDS011;72521;48.924;12.204;2023-11-21T11:58:19;8.02;;;4.53;;
12451;SDS011;72521;48.924;12.204;2023-11-21T12:03:23;6.65;;;4.47;;
12451;SDS011;72521;48.924;12.204;2023-11-21T12:08:31;4.63;;;3.45;;
12451;SDS011;72521;48.924;12.204;2023-11-21T12:13:34;4.93;;;3.65;;
12451;SDS011;72521;48.924;12.204;2023-11-21T12:18:40;5.18;;;3.22;;
12451;SDS011;72521;48.924;12.204;2023-11-21T12:23:45;3.72;;;2.60;;
12451;SDS011;72521;48.924;12.204;2023-11-21T12:28:51;4.28;;;3.03;;
12451;SDS011;72521;48.924;12.204;2023-11-21T12:33:57;4.18;;;2.85;;
12451;SDS011;72521;48.924;12.204;2023-11-21T12:39:03;5.28;;;3.40;;
12451;SDS011;72521;48.924;12.204;2023-11-21T12:44:09;4.13;;;3.00;;
12451;SDS011;72521;48.924;12.204;2023-11-21T12:49:17;4.53;;;2.88;;
12451;SDS011;72521;48.924;12.204;2023-11-21T12:54:22;4.68;;;2.67;;
12451;SDS011;72521;48.924;12.204;2023-11-21T12:59:26;3.58;;;2.67;;
12451;SDS011;72521;48.924;12.204;2023-11-21T13:04:32;6.25;;;3.00;;
12451;SDS011;72521;48.924;12.204;2023-11-21T13:09:38;4.63;;;2.63;;
12451;SDS011;72521;48.924;12.204;2023-11-21T13:14:42;5.15;;;2.80;;
12451;SDS011;72521;48.924;12.204;2023-11-21T13:19:48;5.00;;;3.53;;
12451;SDS011;72521;48.924;12.204;2023-11-21T13:24:53;5.88;;;4.25;;
12451;SDS011;72521;48.924;12.204;2023-11-21T13:29:58;3.92;;;3.28;;
12451;SDS011;72521;48.924;12.204;2023-11-21T13:35:02;6.85;;;3.53;;
12451;SDS011;72521;48.924;12.204;2023-11-21T13:40:11;6.03;;;4.80;;
12451;SDS011;72521;48.924;12.204;2023-11-21T13:45:16;6.85;;;4.53;;
12451;SDS011;72521;48.924;12.204;2023-11-21T13:50:22;5.32;;;4.03;;
12451;SDS011;72521;48.924;12.204;2023-11-21T13:55:33;6.60;;;3.65;;
12451;SDS011;72521;48.924;12.204;2023-11-21T14:00:37;5.15;;;3.97;;
12451;SDS011;72521;48.924;12.204;2023-11-21T14:05:47;6.65;;;4.22;;
12451;SDS011;72521;48.924;12.204;2023-11-21T14:10:54;4.55;;;3.45;;
12451;SDS011;72521;48.924;12.204;2023-11-21T14:15:59;7.38;;;4.43;;
12451;SDS011;72521;48.924;12.204;2023-11-21T14:21:04;4.75;;;3.45;;
12451;SDS011;72521;48.924;12.204;2023-11-21T14:26:14;3.50;;;3.08;;
12451;SDS011;72521;48.924;12.204;2023-11-21T14:31:18;5.00;;;3.40;;
12451;SDS011;72521;48.924;12.204;2023-11-21T14:36:24;3.10;;;2.40;;
12451;SDS011;72521;48.924;12.204;2023-11-21T14:41:29;2.67;;;2.47;;
12451;SDS011;72521;48.924;12.204;2023-11-21T14:46:33;3.40;;;2.22;;
12451;SDS011;72521;48.924;12.204;2023-11-21T14:51:39;6.30;;;2.90;;
12451;SDS011;72521;48.924;12.204;2023-11-21T14:57:03;4.55;;;3.15;;
12451;SDS011;72521;48.924;12.204;2023-11-21T15:02:11;3.47;;;3.10;;
12451;SDS011;72521;48.924;12.204;2023-11-21T15:07:23;5.47;;;2.88;;
12451;SDS011;72521;48.924;12.204;2023-11-21T15:12:30;4.60;;;2.95;;
12451;SDS011;72521;48.924;12.204;2023-11-21T15:17:39;5.07;;;2.90;;
12451;SDS011;72521;48.924;12.204;2023-11-21T15:22:46;7.25;;;3.83;;
12451;SDS011;72521;48.924;12.204;2023-11-21T15:27:52;15.15;;;10.27;;
12451;SDS011;72521;48.924;12.204;2023-11-21T15:32:56;6.38;;;5.78;;
12451;SDS011;72521;48.924;12.204;2023-11-21T15:38:00;5.90;;;4.45;;
12451;SDS011;72521;48.924;12.204;2023-11-21T15:43:05;15.07;;;11.73;;
12451;SDS011;72521;48.924;12.204;2023-11-21T15:48:10;9.35;;;7.72;;
12451;SDS011;72521;48.924;12.204;2023-11-21T15:53:14;7.30;;;5.65;;
12451;SDS011;72521;48.924;12.204;2023-11-21T15:58:20;4.20;;;3.78;;
12451;SDS011;72521;48.924;12.204;2023-11-21T16:03:24;9.15;;;6.75;;
12451;SDS011;72521;48.924;12.204;2023-11-21T16:08:28;11.48;;;6.72;;
12451;SDS011;72521;48.924;12.204;2023-11-21T16:13:33;12.13;;;9.20;;
12451;SDS011;72521;48.924;12.204;2023-11-21T16:18:37;6.95;;;6.03;;
12451;SDS011;72521;48.924;12.204;2023-11-21T16:23:41;13.35;;;9.65;;
12451;SDS011;72521;48.924;12.204;2023-11-21T16:28:46;17.42;;;12.82;;
12451;SDS011;72521;48.924;12.204;2023-11-21T16:33:53;11.55;;;8.05;;
12451;SDS011;72521;48.924;12.204;2023-11-21T16:38:59;7.68;;;6.18;;
12451;SDS011;72521;48.924;12.204;2023-11-21T16:44:05;9.95;;;6.95;;
12451;SDS011;72521;48.924;12.204;2023-11-21T16:49:15;25.17;;;20.30;;
12451;SDS011;72521;48.924;12.204;2023-11-21T16:54:20;21.23;;;17.55;;
12451;SDS011;72521;48.924;12.204;2023-11-21T16:59:27;11.77;;;9.27;;
12451;SDS011;72521;48.924;12.204;2023-11-21T17:04:31;9.23;;;8.27;;
12451;SDS011;72521;48.924;12.204;2023-11-21T17:09:36;11.57;;;9.65;;
12451;SDS011;72521;48.924;12.204;2023-11-21T17:14:43;9.35;;;7.30;;
12451;SDS011;72521;48.924;12.204;2023-11-21T17:19:48;9.63;;;7.35;;
12451;SDS011;72521;48.924;12.204;2023-11-21T17:24:52;14.00;;;11.25;;
12451;SDS011;72521;48.924;12.204;2023-11-21T17:29:57;14.75;;;11.15;;
12451;SDS011;72521;48.924;12.204;2023-11-21T17:35:02;14.50;;;12.90;;
12451;SDS011;72521;48.924;12.204;2023-11-21T17:40:11;16.65;;;13.70;;
12451;SDS011;72521;48.924;12.204;2023-11-21T17:45:17;16.02;;;14.32;;
12451;SDS011;72521;48.924;12.204;2023-11-21T17:50:22;15.43;;;13.70;;
12451;SDS011;72521;48.924;12.204;2023-11-21T17:55:29;16.63;;;11.77;;
12451;SDS011;72521;48.924;12.204;2023-11-21T18:00:34;12.88;;;10.82;;
12451;SDS011;72521;48.924;12.204;2023-11-21T18:05:38;12.23;;;9.80;;
12451;SDS011;72521;48.924;12.204;2023-11-21T18:10:43;14.45;;;11.10;;
12451;SDS011;72521;48.924;12.204;2023-11-21T18:15:50;13.43;;;11.20;;
12451;SDS011;72521;48.924;12.204;2023-11-21T18:20:54;16.83;;;11.52;;
12451;SDS011;72521;48.924;12.204;2023-11-21T18:25:58;12.95;;;10.48;;
12451;SDS011;72521;48.924;12.204;2023-11-21T18:31:06;13.73;;;9.68;;
12451;SDS011;72521;48.924;12.204;2023-11-21T18:36:11;12.77;;;9.60;;
12451;SDS011;72521;48.924;12.204;2023-11-21T18:41:19;10.95;;;8.80;;
12451;SDS011;72521;48.924;12.204;2023-11-21T18:46:26;11.07;;;7.85;;
12451;SDS011;72521;48.924;12.204;2023-11-21T18:51:30;10.23;;;8.23;;
12451;SDS011;72521;48.924;12.204;2023-11-21T18:56:35;12.32;;;7.03;;
12451;SDS011;72521;48.924;12.204;2023-11-21T19:01:41;11.27;;;8.73;;
12451;SDS011;72521;48.924;12.204;2023-11-21T19:06:46;24.75;;;21.70;;
12451;SDS011;72521;48.924;12.204;2023-11-21T19:11:50;12.45;;;11.02;;
12451;SDS011;72521;48.924;12.204;2023-11-21T19:16:56;15.57;;;9.00;;
12451;SDS011;72521;48.924;12.204;2023-11-21T19:22:00;12.88;;;8.25;;
12451;SDS011;72521;48.924;12.204;2023-11-21T19:27:05;7.72;;;6.85;;
12451;SDS011;72521;48.924;12.204;2023-11-21T19:32:10;8.15;;;6.28;;
12451;SDS011;72521;48.924;12.204;2023-11-21T19:37:14;10.20;;;6.05;;
12451;SDS011;72521;48.924;12.204;2023-11-21T19:42:19;10.45;;;6.32;;
12451;SDS011;72521;48.924;12.204;2023-11-21T19:47:27;8.68;;;6.22;;
12451;SDS011;72521;48.924;12.204;2023-11-21T19:52:36;10.32;;;6.63;;
12451;SDS011;72521;48.924;12.204;2023-11-21T19:57:41;7.18;;;5.30;;
12451;SDS011;72521;48.924;12.204;2023-11-21T20:02:47;8.45;;;5.35;;
12451;SDS011;72521;48.924;12.204;2023-11-21T20:07:51;8.57;;;5.88;;
12451;SDS011;72521;48.924;12.204;2023-11-21T20:12:55;8.70;;;5.95;;
12451;SDS011;72521;48.924;12.204;2023-11-21T20:18:04;12.15;;;7.10;;
12451;SDS011;72521;48.924;12.204;2023-11-21T20:23:09;8.90;;;6.07;;
12451;SDS011;72521;48.924;12.204;2023-11-21T20:28:13;10.52;;;5.90;;
12451;SDS011;72521;48.924;12.204;2023-11-21T20:33:19;6.95;;;5.63;;
12451;SDS011;72521;48.924;12.204;2023-11-21T20:38:24;10.30;;;6.43;;
12451;SDS011;72521;48.924;12.204;2023-11-21T20:43:29;9.25;;;6.40;;
12451;SDS011;72521;48.924;12.204;2023-11-21T20:48:34;8.93;;;6.47;;
12451;SDS011;72521;48.924;12.204;2023-11-21T20:53:39;9.32;;;6.82;;
12451;SDS011;72521;48.924;12.204;2023-11-21T20:58:43;8.10;;;5.72;;
12451;SDS011;72521;48.924;12.204;2023-11-21T21:03:49;7.88;;;6.07;;
12451;SDS011;72521;48.924;12.204;2023-11-21T21:08:53;9.52;;;7.10;;
12451;SDS011;72521;48.924;12.204;2023-11-21T21:13:59;9.63;;;5.85;;
12451;SDS011;72521;48.924;12.204;2023-11-21T21:19:05;8.43;;;5.85;;
12451;SDS011;72521;48.924;12.204;2023-11-21T21:24:09;7.97;;;6.07;;
12451;SDS011;72521;48.924;12.204;2023-11-21T21:29:14;9.88;;;6.55;;
12451;SDS011;72521;48.924;12.204;2023-11-21T21:34:19;8.45;;;6.50;;
12451;SDS011;72521;48.924;12.204;2023-11-21T21:39:23;11.02;;;7.03;;
12451;SDS011;72521;48.924;12.204;2023-11-21T21:44:27;11.48;;;7.43;;
12451;SDS011;72521;48.924;12.204;2023-11-21T21:49:33;5.45;;;4.85;;
12451;SDS011;72521;48.924;12.204;2023-11-21T21:54:39;4.65;;;4.00;;
12451;SDS011;72521;48.924;12.204;2023-11-21T21:59:43;4.65;;;3.63;;
12451;SDS011;72521;48.924;12.204;2023-11-21T22:04:52;3.30;;;3.00;;
12451;SDS011;72521;48.924;12.204;2023-11-21T22:09:57;4.45;;;3.90;;
12451;SDS011;72521;48.924;12.204;2023-11-21T22:15:01;3.72;;;2.80;;
12451;SDS011;72521;48.924;12.204;2023-11-21T22:20:09;2.30;;;1.95;;
12451;SDS011;72521;48.924;12.204;2023-11-21T22:25:14;2.00;;;1.65;;
12451;SDS011;72521;48.924;12.204;2023-11-21T22:30:18;2.33;;;1.98;;
12451;SDS011;72521;48.924;12.204;2023-11-21T22:35:27;2.88;;;1.50;;
12451;SDS011;72521;48.924;12.204;2023-11-21T22:40:33;2.30;;;1.80;;
12451;SDS011;72521;48.924;12.204;2023-11-21T22:45:37;2.22;;;1.80;;
12451;SDS011;72521;48.924;12.204;2023-11-21T22:50:43;2.90;;;1.87;;
12451;SDS011;72521;48.924;12.204;2023-11-21T22:55:49;3.63;;;2.63;;
12451;SDS011;72521;48.924;12.204;2023-11-21T23:00:52;3.20;;;2.90;;
12451;SDS011;72521;48.924;12.204;2023-11-21T23:06:01;3.10;;;2.80;;
12451;SDS011;72521;48.924;12.204;2023-11-21T23:11:05;2.47;;;2.13;;
12451;SDS011;72521;48.924;12.204;2023-11-21T23:16:09;2.33;;;2.10;;
12451;SDS011;72521;48.924;12.204;2023-11-21T23:21:15;2.97;;;2.67;;
12451;SDS011;72521;48.924;12.204;2023-11-21T23:26:19;3.50;;;2.27;;
12451;SDS011;72521;48.924;12.204;2023-11-21T23:31:23;3.20;;;2.20;;
12451;SDS011;72521;48.924;12.204;2023-11-21T23:36:28;2.57;;;2.07;;
12451;SDS011;72521;48.924;12.204;2023-11-21T23:41:33;2.40;;;2.10;;
12451;SDS011;72521;48.924;12.204;2023-11-21T23:46:37;2.90;;;1.97;;
12451;SDS011;72521;48.924;12.204;2023-11-21T23:51:45;3.70;;;2.80;;
12451;SDS011;72521;48.924;12.204;2023-11-21T23:56:49;3.23;;;2.53;;
